Time;durP1;ratioP1;P1;durP2;ratioP2;P2;SDS_P1;SDS_P2;PMS_P1;PMS_P2;Temp;Humidity;BMP_temperature;BMP_pressure;BME280_temperature;BME280_humidity;BME280_pressure;Samples;Min_cycle;Max_cycle;Signal;HPM_P1;HPM_P2
2023/05/18 00:02:02;;;;;;;8.13;3.47;;;;;;;4.31;72.92;102624.91;4841247;29;20303;-84
2023/05/18 00:04:28;;;;;;;8.02;3.20;;;;;;;4.27;73.50;102626.09;4841728;29;20034;-85
2023/05/18 00:06:57;;;;;;;5.85;3.55;;;;;;;4.20;73.60;102624.84;4838741;29;20470;-85
2023/05/18 00:09:25;;;;;;;10.15;3.97;;;;;;;4.18;74.13;102619.63;4839966;29;20487;-85
2023/05/18 00:11:53;;;;;;;16.23;3.95;;;;;;;4.17;74.11;102620.56;4841286;29;20084;-84
2023/05/18 00:14:19;;;;;;;10.90;3.75;;;;;;;4.16;73.93;102623.38;4839121;29;20044;-84
2023/05/18 00:16:44;;;;;;;7.15;3.35;;;;;;;4.22;74.36;102622.94;4839211;29;20045;-84
2023/05/18 00:19:13;;;;;;;10.02;3.63;;;;;;;4.15;74.53;102627.00;4834829;29;20097;-84
2023/05/18 00:21:39;;;;;;;7.95;3.55;;;;;;;4.10;74.24;102630.84;4831947;29;20041;-84
2023/05/18 00:24:04;;;;;;;;;;;;;;;4.04;74.30;102623.31;4838519;29;20515;-84
2023/05/18 00:26:30;;;;;;;6.93;3.40;;;;;;;3.98;74.98;102626.38;4836940;29;19927;-84
2023/05/18 00:28:55;;;;;;;8.53;3.30;;;;;;;3.98;75.09;102625.53;4839091;29;20097;-84
2023/05/18 00:31:20;;;;;;;12.52;3.60;;;;;;;3.93;74.98;102628.53;4826547;29;20042;-85
2023/05/18 00:33:46;;;;;;;7.70;4.07;;;;;;;3.93;75.29;102631.19;4831963;29;20038;-84
2023/05/18 00:36:14;;;;;;;7.78;3.55;;;;;;;3.89;75.41;102627.91;4841187;29;20037;-84
2023/05/18 00:38:40;;;;;;;10.68;4.00;;;;;;;3.92;74.59;102633.00;4837295;29;20049;-85
2023/05/18 00:41:05;;;;;;;7.47;3.55;;;;;;;3.91;74.72;102625.13;4839503;29;20443;-84
2023/05/18 00:43:42;;;;;;;7.25;3.60;;;;;;;3.88;75.13;102620.88;4829377;29;20042;-85
2023/05/18 00:46:08;;;;;;;8.90;3.65;;;;;;;3.87;75.47;102626.31;4829608;29;20030;-85
2023/05/18 00:48:33;;;;;;;8.60;3.80;;;;;;;3.84;75.17;102630.03;4816792;29;20074;-84
2023/05/18 00:51:01;;;;;;;6.50;3.70;;;;;;;3.84;75.56;102623.88;4840138;29;20091;-85
2023/05/18 00:53:26;;;;;;;10.55;4.13;;;;;;;3.82;75.43;102628.44;4839626;29;20037;-84
2023/05/18 00:55:52;;;;;;;11.60;4.40;;;;;;;3.75;75.34;102623.53;4823620;29;20054;-84
2023/05/18 00:58:17;;;;;;;6.85;3.47;;;;;;;3.74;75.77;102629.00;4821565;29;20316;-84
2023/05/18 01:00:43;;;;;;;7.97;3.50;;;;;;;3.68;76.19;102632.06;4817288;29;20552;-84
2023/05/18 01:03:09;;;;;;;7.93;4.03;;;;;;;3.59;75.68;102630.91;4819976;29;20546;-85
2023/05/18 01:05:35;;;;;;;5.95;3.55;;;;;;;3.57;76.83;102631.03;4815912;29;20583;-84
2023/05/18 01:08:01;;;;;;;10.27;3.60;;;;;;;3.51;76.26;102634.09;4817192;29;20064;-84
2023/05/18 01:10:27;;;;;;;7.03;3.80;;;;;;;3.49;76.86;102636.88;4955831;24;20050;-84
2023/05/18 01:12:55;;;;;;;8.83;3.83;;;;;;;3.43;76.78;102637.28;4817684;29;20034;-84
2023/05/18 01:15:41;;;;;;;8.20;3.88;;;;;;;3.42;77.07;102635.59;4816714;29;20303;-84
2023/05/18 01:18:09;;;;;;;9.82;4.00;;;;;;;3.40;77.10;102637.50;4815365;29;20038;-84
2023/05/18 01:20:38;;;;;;;12.27;4.20;;;;;;;3.33;77.54;102637.06;4835302;29;20145;-85
2023/05/18 01:23:28;;;;;;;6.53;3.47;;;;;;;3.29;77.92;102634.72;4803004;29;20087;-84
2023/05/18 01:25:53;;;;;;;8.13;4.15;;;;;;;3.29;77.87;102640.06;4816095;29;20042;-85
2023/05/18 01:28:26;;;;;;;7.20;4.40;;;;;;;3.26;78.45;102634.94;4820691;29;20087;-85
2023/05/18 01:30:51;;;;;;;12.23;4.10;;;;;;;3.30;77.75;102633.78;4819832;29;20157;-84
2023/05/18 01:33:17;;;;;;;4.53;3.50;;;;;;;3.18;78.34;102635.44;4821321;29;20041;-84
2023/05/18 01:35:46;;;;;;;7.63;4.17;;;;;;;3.13;78.20;102643.75;4821481;29;20299;-85
2023/05/18 01:38:15;;;;;;;9.43;4.03;;;;;;;3.11;78.06;102643.00;4816674;29;20499;-83
2023/05/18 01:41:22;;;;;;;7.45;3.72;;;;;;;3.16;78.63;102650.66;4818308;29;20043;-84
2023/05/18 01:44:25;;;;;;;8.25;4.00;;;;;;;3.05;78.50;102638.09;4816806;29;20129;-84
2023/05/18 01:46:57;;;;;;;8.93;3.97;;;;;;;2.99;79.05;102642.00;4817135;29;20498;-84
2023/05/18 01:49:23;;;;;;;9.80;4.35;;;;;;;2.93;78.84;102644.22;4832843;29;20092;-84
2023/05/18 01:51:48;;;;;;;10.68;4.63;;;;;;;2.85;79.40;102653.56;4812257;29;20038;-84
2023/05/18 01:54:15;;;;;;;11.00;4.57;;;;;;;2.83;79.74;102652.81;4834378;29;20030;-84
2023/05/18 01:56:40;;;;;;;10.15;4.32;;;;;;;2.78;79.71;102646.97;4818320;29;20030;-84
2023/05/18 01:59:06;;;;;;;7.83;4.00;;;;;;;2.79;79.89;102654.00;4802479;29;20027;-83
2023/05/18 02:01:31;;;;;;;9.30;4.68;;;;;;;2.83;79.69;102654.63;4821072;29;20592;-84
2023/05/18 02:03:57;;;;;;;9.40;4.13;;;;;;;2.83;79.87;102655.47;4819125;29;20612;-84
2023/05/18 02:06:25;;;;;;;6.83;4.20;;;;;;;2.73;80.00;102654.38;4817516;29;20061;-84
2023/05/18 02:08:50;;;;;;;11.27;4.50;;;;;;;2.68;80.31;102645.84;4827423;29;20518;-83
2023/05/18 02:11:16;;;;;;;10.20;4.27;;;;;;;2.67;80.29;102649.44;4834257;29;20042;-82
2023/05/18 02:13:41;;;;;;;10.57;4.43;;;;;;;2.68;80.30;102653.81;4820440;29;20050;-83
2023/05/18 02:16:06;;;;;;;7.97;4.20;;;;;;;2.72;80.36;102642.91;4820270;29;20401;-83
2023/05/18 02:18:33;;;;;;;16.25;5.07;;;;;;;2.71;79.82;102651.84;4819223;29;20026;-83
2023/05/18 02:20:58;;;;;;;8.73;4.40;;;;;;;2.73;80.29;102649.94;4823209;29;20098;-83
2023/05/18 02:23:24;;;;;;;12.65;4.72;;;;;;;2.71;80.56;102646.50;4818909;29;20063;-85
2023/05/18 02:25:50;;;;;;;8.30;4.40;;;;;;;2.66;80.52;102647.75;4820220;29;20519;-83
2023/05/18 02:28:15;;;;;;;11.43;4.47;;;;;;;2.65;80.75;102646.06;4818774;29;20045;-83
2023/05/18 02:30:41;;;;;;;8.97;4.50;;;;;;;2.67;80.62;102644.13;4820285;29;20031;-83
2023/05/18 02:33:09;;;;;;;7.30;4.50;;;;;;;2.67;80.56;102649.44;4818310;29;20668;-83
2023/05/18 02:35:35;;;;;;;9.35;4.50;;;;;;;2.65;80.39;102652.22;4817537;29;20031;-84
2023/05/18 02:38:01;;;;;;;11.30;4.73;;;;;;;2.60;80.54;102648.16;4816629;29;20037;-84
2023/05/18 02:40:26;;;;;;;9.73;4.78;;;;;;;2.57;80.81;102647.41;4814477;29;20051;-84
2023/05/18 02:42:52;;;;;;;7.40;4.20;;;;;;;2.56;81.19;102642.16;4817548;29;20039;-84
2023/05/18 02:45:19;;;;;;;14.03;4.97;;;;;;;2.52;80.87;102644.19;4811345;29;20467;-84
2023/05/18 02:47:45;;;;;;;9.63;4.22;;;;;;;2.48;81.40;102649.81;4818665;29;20391;-84
2023/05/18 02:50:23;;;;;;;8.80;4.95;;;;;;;2.49;81.66;102647.03;4880105;24;20047;-84
2023/05/18 02:52:48;;;;;;;9.40;4.78;;;;;;;2.43;81.36;102637.66;4811502;29;20083;-83
2023/05/18 02:55:23;;;;;;;9.93;4.60;;;;;;;2.40;81.27;102631.69;4846116;29;20007;-83
2023/05/18 02:57:55;;;;;;;11.23;4.70;;;;;;;2.41;81.54;102633.41;4847446;29;20045;-83
2023/05/18 03:00:22;;;;;;;7.43;4.82;;;;;;;2.41;81.49;102641.38;4836589;29;20034;-84
2023/05/18 03:02:49;;;;;;;9.27;4.63;;;;;;;2.39;81.68;102637.97;4832517;29;20490;-83
2023/05/18 03:05:15;;;;;;;9.65;4.95;;;;;;;2.39;81.58;102632.66;4838382;29;20026;-84
2023/05/18 03:07:44;;;;;;;10.70;5.18;;;;;;;2.32;81.63;102641.94;4827463;29;20049;-81
2023/05/18 03:10:10;;;;;;;9.25;4.82;;;;;;;2.29;82.24;102648.31;4832375;29;20045;-79
2023/05/18 03:12:35;;;;;;;11.25;4.68;;;;;;;2.21;81.98;102643.50;4829987;29;20033;-79
2023/05/18 03:15:00;;;;;;;8.73;5.40;;;;;;;2.26;82.39;102637.88;4833482;29;20095;-80
2023/05/18 03:17:26;;;;;;;9.97;4.80;;;;;;;2.23;82.16;102638.06;4835643;29;20034;-80
2023/05/18 03:19:51;;;;;;;8.70;4.90;;;;;;;2.24;82.25;102642.44;4829791;29;20034;-80
2023/05/18 03:22:16;;;;;;;8.67;4.53;;;;;;;2.24;82.47;102643.31;4827664;29;20026;-79
2023/05/18 03:24:42;;;;;;;11.57;5.17;;;;;;;2.25;82.47;102645.03;4830419;29;20303;-80
2023/05/18 03:27:07;;;;;;;10.03;4.77;;;;;;;2.26;82.45;102643.19;4827781;29;20030;-80
2023/05/18 03:29:35;;;;;;;7.77;4.73;;;;;;;2.26;82.59;102635.22;4822570;29;20046;-79
2023/05/18 03:32:01;;;;;;;11.45;5.40;;;;;;;2.25;82.56;102639.72;4828209;29;20454;-78
2023/05/18 03:34:26;;;;;;;9.85;5.00;;;;;;;2.21;82.60;102643.50;4835637;29;20030;-79
2023/05/18 03:36:53;;;;;;;13.33;5.07;;;;;;;2.24;82.42;102642.44;4826897;29;20623;-78
2023/05/18 03:39:19;;;;;;;15.68;5.20;;;;;;;2.26;82.59;102649.38;4828100;29;20290;-78
2023/05/18 03:41:44;;;;;;;11.85;5.80;;;;;;;2.25;82.44;102645.03;4834134;29;20129;-79
2023/05/18 03:44:10;;;;;;;10.48;5.30;;;;;;;2.25;82.59;102642.38;4827910;29;20052;-79
2023/05/18 03:46:35;;;;;;;10.70;5.20;;;;;;;2.27;82.33;102647.56;4833200;29;20460;-79
2023/05/18 03:49:02;;;;;;;8.43;4.63;;;;;;;2.29;82.13;102650.16;4834488;29;20046;-80
2023/05/18 03:51:28;;;;;;;11.15;5.40;;;;;;;2.35;82.57;102647.06;4829200;29;20326;-79
2023/05/18 03:53:53;;;;;;;10.60;5.22;;;;;;;2.38;82.32;102645.06;4816732;29;20495;-79
2023/05/18 03:56:18;;;;;;;11.87;5.87;;;;;;;2.45;82.01;102648.22;4837015;29;20034;-80
2023/05/18 03:58:44;;;;;;;11.63;5.27;;;;;;;2.48;81.86;102650.66;4831099;29;20046;-79
2023/05/18 04:01:09;;;;;;;14.05;5.50;;;;;;;2.54;81.72;102644.94;4830924;29;20410;-80
2023/05/18 04:03:35;;;;;;;9.90;5.17;;;;;;;2.63;81.46;102650.63;4833717;29;20030;-78
2023/05/18 04:06:00;;;;;;;7.13;4.70;;;;;;;2.68;80.83;102656.47;4834065;29;20364;-78
2023/05/18 04:08:26;;;;;;;9.13;5.20;;;;;;;2.71;80.78;102651.84;4827532;29;20033;-78
2023/05/18 04:10:51;;;;;;;8.38;5.20;;;;;;;2.78;81.24;102646.09;4830600;29;20313;-78
2023/05/18 04:13:16;;;;;;;10.45;5.00;;;;;;;2.83;80.35;102644.81;4832006;29;20026;-85
2023/05/18 04:15:42;;;;;;;9.52;4.82;;;;;;;2.92;80.22;102654.00;4830552;29;20034;-84
2023/05/18 04:18:09;;;;;;;9.32;4.97;;;;;;;3.01;80.00;102649.88;4813712;29;20034;-84
2023/05/18 04:20:36;;;;;;;13.00;5.15;;;;;;;3.11;79.34;102653.66;4832608;29;20114;-85
2023/05/18 04:23:02;;;;;;;10.32;5.32;;;;;;;3.15;79.08;102649.84;4813803;29;20411;-85
2023/05/18 04:25:27;;;;;;;12.15;5.53;;;;;;;3.22;78.82;102655.59;4836904;29;20038;-84
2023/05/18 04:27:53;;;;;;;8.83;4.93;;;;;;;3.33;78.37;102665.50;4837971;29;20045;-84
2023/05/18 04:30:21;;;;;;;10.70;5.50;;;;;;;3.41;78.14;102660.50;4831982;29;20307;-84
2023/05/18 04:32:46;;;;;;;10.63;5.25;;;;;;;3.50;77.40;102659.03;4836969;29;20112;-82
2023/05/18 04:35:12;;;;;;;9.40;5.22;;;;;;;3.61;76.96;102671.59;4839269;29;20085;-79
2023/05/18 04:37:41;;;;;;;10.40;5.25;;;;;;;3.70;77.01;102678.97;4831335;29;20043;-79
2023/05/18 04:40:07;;;;;;;11.25;5.00;;;;;;;3.85;76.13;102678.84;4830143;29;20037;-80
2023/05/18 04:42:35;;;;;;;13.13;5.28;;;;;;;3.93;75.66;102682.69;4835182;29;20397;-81
2023/05/18 04:45:01;;;;;;;9.55;5.13;;;;;;;4.10;75.63;102686.81;4831428;29;20428;-79
2023/05/18 04:47:31;;;;;;;;;;;;;;;4.15;75.41;102681.16;4827122;29;20049;-81
2023/05/18 04:49:57;;;;;;;13.43;5.00;;;;;;;4.29;74.06;102687.31;4839352;29;19955;-83
2023/05/18 04:52:29;;;;;;;8.90;5.05;;;;;;;4.32;73.79;102685.28;4827282;29;20495;-83
2023/05/18 04:54:55;;;;;;;11.45;4.60;;;;;;;4.44;74.09;102680.88;4829522;29;20060;-83
2023/05/18 04:57:20;;;;;;;14.00;4.65;;;;;;;4.62;73.17;102689.34;4832228;29;20650;-82
2023/05/18 04:59:46;;;;;;;12.63;4.90;;;;;;;4.77;72.04;102686.50;4838578;29;20026;-83
2023/05/18 05:02:11;;;;;;;12.43;5.40;;;;;;;4.92;71.77;102688.06;4838213;29;20390;-85
2023/05/18 05:04:37;;;;;;;12.65;4.72;;;;;;;5.31;71.70;102698.53;4832154;29;20038;-83
2023/05/18 05:07:02;;;;;;;12.00;4.93;;;;;;;5.96;68.85;102690.88;4824718;29;20344;-84
2023/05/18 05:09:30;;;;;;;;;;;;;;;6.81;65.73;102701.97;4834653;29;20030;-86
2023/05/18 05:11:56;;;;;;;8.88;4.35;;;;;;;7.47;63.28;102687.59;4834912;29;19921;-82
2023/05/18 05:17:24;;;;;;;9.32;4.10;;;;;;;8.04;60.18;102690.72;4804589;29;19946;-86
2023/05/18 05:19:49;;;;;;;;;;;;;;;8.48;58.98;102700.34;4811708;29;20547;-86
2023/05/18 05:22:16;;;;;;;10.63;4.67;;;;;;;8.99;57.17;102693.06;4807533;29;19928;-83
2023/05/18 05:24:45;;;;;;;9.93;4.10;;;;;;;9.13;56.61;102705.25;4803224;29;20049;-83
2023/05/18 05:27:10;;;;;;;9.55;4.10;;;;;;;9.00;56.56;102708.22;4806299;29;20141;-87
2023/05/18 05:29:35;;;;;;;10.18;4.13;;;;;;;8.64;57.59;102702.50;4811901;29;20039;-83
2023/05/18 05:32:07;;;;;;;;;;;;;;;8.25;59.20;102700.53;4802420;29;20545;-84
2023/05/18 05:34:45;;;;;;;12.27;3.95;;;;;;;8.01;60.32;102707.06;4815389;29;19921;-84
2023/05/18 05:37:20;;;;;;;13.45;4.35;;;;;;;7.93;60.33;102704.22;4802841;29;20057;-85
2023/05/18 05:39:58;;;;;;;8.20;4.15;;;;;;;8.45;58.95;102696.06;4805459;29;20038;-84
2023/05/18 05:42:24;;;;;;;14.00;4.20;;;;;;;8.22;59.78;102708.00;4806813;29;20404;-84
2023/05/18 05:47:16;;;;;;;8.45;4.13;;;;;;;8.63;58.89;102701.66;5004585;24;20088;-83
2023/05/18 05:49:48;;;;;;;11.32;3.90;;;;;;;9.08;57.56;102710.19;4819244;29;20642;-84
2023/05/18 05:52:29;;;;;;;12.52;4.25;;;;;;;9.28;56.78;102696.75;4824316;29;20311;-84
2023/05/18 05:54:54;;;;;;;9.00;3.90;;;;;;;9.40;55.96;102709.03;4819591;29;20049;-84
2023/05/18 05:57:20;;;;;;;9.15;3.67;;;;;;;9.79;53.97;102708.97;4821376;29;20035;-84
2023/05/18 05:59:45;;;;;;;8.50;3.72;;;;;;;9.87;53.03;102700.16;4820967;29;20038;-84
2023/05/18 06:02:11;;;;;;;10.40;3.38;;;;;;;10.58;51.60;102708.66;4827203;29;20042;-84
2023/05/18 06:04:48;;;;;;;9.38;3.58;;;;;;;11.12;50.95;102713.25;4826582;29;20458;-84
2023/05/18 06:07:14;;;;;;;10.07;3.20;;;;;;;11.77;48.72;102709.34;4818948;29;20046;-84
2023/05/18 06:09:54;;;;;;;11.00;3.45;;;;;;;12.70;47.52;102699.66;4827751;29;20038;-84
2023/05/18 06:12:20;;;;;;;5.35;3.05;;;;;;;12.80;45.80;102703.03;4822391;29;20026;-83
2023/05/18 06:14:45;;;;;;;8.43;3.00;;;;;;;13.23;44.91;102710.19;4825346;29;20405;-83
2023/05/18 06:17:14;;;;;;;7.90;3.38;;;;;;;13.33;44.02;102700.03;4838175;29;20647;-83
2023/05/18 06:19:49;;;;;;;8.65;3.08;;;;;;;13.27;43.60;102706.97;4820257;29;20037;-84
2023/05/18 06:22:14;;;;;;;10.07;3.63;;;;;;;13.42;43.65;102704.44;4831079;29;20049;-83
2023/05/18 06:24:52;;;;;;;8.82;3.80;;;;;;;13.06;43.70;102715.56;4845919;29;20026;-84
2023/05/18 06:27:27;;;;;;;9.98;3.53;;;;;;;13.98;42.66;102706.38;4822831;29;20034;-84
2023/05/18 06:29:52;;;;;;;7.80;2.95;;;;;;;14.44;42.03;102715.69;4824172;29;20552;-84
2023/05/18 06:32:17;;;;;;;8.30;3.08;;;;;;;14.82;40.58;102713.97;4822263;29;20038;-84
2023/05/18 06:34:46;;;;;;;9.48;3.33;;;;;;;14.40;41.30;102716.03;4811965;29;20030;-84
2023/05/18 06:37:11;;;;;;;9.95;3.42;;;;;;;14.13;40.70;102711.06;4822330;29;20034;-84
2023/05/18 06:42:59;;;;;;;10.18;3.72;;;;;;;13.69;42.11;102715.06;4817103;29;20061;-83
2023/05/18 06:45:47;;;;;;;9.15;3.53;;;;;;;14.02;40.61;102720.44;4821211;29;20090;-84
2023/05/18 06:48:13;;;;;;;10.27;3.03;;;;;;;15.12;39.96;102726.81;4821390;29;20034;-84
2023/05/18 06:50:54;;;;;;;6.18;2.65;;;;;;;15.34;38.93;102718.84;4827173;29;20057;-84
2023/05/18 06:53:19;;;;;;;8.93;3.00;;;;;;;15.25;38.41;102710.75;4820700;29;20494;-84
2023/05/18 06:55:45;;;;;;;7.47;2.80;;;;;;;15.51;37.91;102720.38;4829166;29;20045;-86
2023/05/18 06:58:22;;;;;;;9.10;3.45;;;;;;;14.84;39.24;102713.78;4824087;29;20041;-85
2023/05/18 07:00:48;;;;;;;8.20;2.90;;;;;;;16.10;37.35;102721.47;4823101;29;20490;-86
2023/05/18 07:03:13;;;;;;;10.75;2.92;;;;;;;16.76;36.32;102723.34;4830281;29;20050;-85
2023/05/18 07:05:38;;;;;;;7.30;3.10;;;;;;;16.48;36.44;102721.34;4820117;29;20437;-86
2023/05/18 07:08:04;;;;;;;7.38;3.10;;;;;;;16.99;35.08;102724.22;4816213;29;20041;-86
2023/05/18 07:10:45;;;;;;;7.82;3.40;;;;;;;16.61;35.27;102726.09;4831238;29;20519;-86
2023/05/18 07:13:11;;;;;;;8.93;3.40;;;;;;;16.92;35.52;102724.97;4820110;29;20042;-86
2023/05/18 07:15:36;;;;;;;9.18;3.10;;;;;;;16.45;36.29;102727.16;4823455;29;20042;-86
2023/05/18 07:18:09;;;;;;;7.13;3.00;;;;;;;16.79;35.62;102722.94;4809799;29;20038;-86
2023/05/18 07:20:35;;;;;;;8.70;3.38;;;;;;;17.88;34.23;102720.09;4824085;29;20042;-85
2023/05/18 07:23:00;;;;;;;8.20;3.20;;;;;;;18.23;32.63;102725.56;4837894;29;20030;-85
2023/05/18 07:25:26;;;;;;;8.82;3.70;;;;;;;18.09;32.82;102727.38;4844078;29;20082;-86
2023/05/18 07:28:00;;;;;;;8.93;3.20;;;;;;;18.90;32.12;102738.59;4832745;29;20055;-85
2023/05/18 07:30:44;;;;;;;5.43;3.13;;;;;;;18.45;32.43;102733.63;4826824;29;20027;-85
2023/05/18 07:33:10;;;;;;;7.57;3.13;;;;;;;18.40;32.26;102733.41;4819849;29;20026;-85
2023/05/18 07:35:35;;;;;;;8.65;3.25;;;;;;;18.14;32.38;102729.53;4819711;29;20049;-85
2023/05/18 07:38:01;;;;;;;11.20;3.35;;;;;;;16.73;34.49;102733.75;4822302;29;20471;-85
2023/05/18 07:40:26;;;;;;;8.73;3.53;;;;;;;17.25;34.10;102737.25;4825265;29;20033;-85
2023/05/18 07:42:51;;;;;;;10.05;3.88;;;;;;;17.88;32.86;102741.91;4821514;29;20109;-85
2023/05/18 07:48:03;;;;;;;9.90;3.55;;;;;;;17.57;33.43;102735.00;4749186;30;20048;-85
2023/05/18 07:50:52;;;;;;;8.93;3.35;;;;;;;18.73;32.49;102732.66;4810688;29;20049;-85
2023/05/18 07:53:24;;;;;;;9.63;3.33;;;;;;;19.22;31.19;102731.53;4821334;29;20079;-85
2023/05/18 07:55:55;;;;;;;9.65;3.65;;;;;;;20.04;29.65;102744.09;4829822;29;20092;-85
2023/05/18 07:58:20;;;;;;;7.13;3.63;;;;;;;19.66;29.89;102744.75;4828549;29;20095;-85
2023/05/18 08:00:46;;;;;;;10.18;3.47;;;;;;;19.46;30.75;102744.78;4825656;29;20030;-83
2023/05/18 08:03:21;;;;;;;9.82;3.50;;;;;;;19.22;30.86;102742.47;4825116;29;20027;-83
2023/05/18 08:05:46;;;;;;;10.40;3.30;;;;;;;19.26;31.24;102747.47;4820519;29;20079;-83
2023/05/18 08:08:14;;;;;;;9.20;3.00;;;;;;;20.10;29.38;102756.91;4822522;29;20433;-83
2023/05/18 08:10:40;;;;;;;8.13;3.40;;;;;;;20.67;28.64;102748.03;4822796;29;20493;-83
2023/05/18 08:13:21;;;;;;;8.90;3.55;;;;;;;19.94;29.30;102749.16;4820579;29;20063;-84
2023/05/18 08:16:01;;;;;;;8.15;3.42;;;;;;;18.74;31.60;102745.25;4822410;29;20391;-84
2023/05/18 08:18:27;;;;;;;11.82;3.58;;;;;;;17.45;33.01;102740.13;4823966;29;20038;-83
2023/05/18 08:21:08;;;;;;;9.82;3.35;;;;;;;17.02;33.97;102753.78;4829454;29;20061;-83
2023/05/18 08:23:49;;;;;;;8.65;3.35;;;;;;;16.68;34.43;102754.19;4823638;29;20035;-83
2023/05/18 08:26:14;;;;;;;7.60;3.00;;;;;;;18.07;32.35;102750.44;4806612;29;20120;-83
2023/05/18 08:28:41;;;;;;;7.22;3.05;;;;;;;17.35;32.94;102754.06;4827266;29;20034;-85
2023/05/18 08:31:06;;;;;;;8.15;3.15;;;;;;;15.80;35.70;102742.31;4837475;29;20307;-85
2023/05/18 08:33:34;;;;;;;12.25;3.70;;;;;;;14.77;37.71;102746.19;4821643;29;20303;-84
2023/05/18 08:36:00;;;;;;;9.23;3.25;;;;;;;14.98;38.08;102737.44;4820415;29;20134;-84
2023/05/18 08:38:34;;;;;;;10.30;3.35;;;;;;;14.74;38.09;102740.28;4822915;29;20094;-83
2023/05/18 08:41:34;;;;;;;9.25;3.20;;;;;;;15.38;37.39;102736.44;4831506;29;20061;-85
2023/05/18 08:44:16;;;;;;;9.35;3.28;;;;;;;16.05;36.91;102740.22;4791143;29;20045;-85
2023/05/18 08:46:47;;;;;;;9.13;3.33;;;;;;;16.40;36.14;102737.78;4815838;29;20042;-84
2023/05/18 08:49:16;;;;;;;10.48;3.17;;;;;;;15.77;36.36;102732.66;4834361;29;20070;-84
2023/05/18 08:51:44;;;;;;;9.82;2.88;;;;;;;17.19;35.36;102727.13;4803694;29;20026;-85
2023/05/18 08:54:10;;;;;;;11.45;3.25;;;;;;;18.10;32.23;102742.69;4822118;29;20066;-84
2023/05/18 08:56:48;;;;;;;7.68;2.97;;;;;;;18.73;31.44;102732.66;4802545;24;20058;-85
2023/05/18 08:59:22;;;;;;;10.07;3.20;;;;;;;18.45;31.63;102730.91;4821498;29;20034;-84
2023/05/18 09:01:47;;;;;;;7.22;2.97;;;;;;;19.26;30.22;102736.56;4820290;29;20067;-85
2023/05/18 09:04:17;;;;;;;8.00;3.30;;;;;;;17.00;33.32;102725.91;4809414;29;20042;-85
2023/05/18 09:06:43;;;;;;;10.05;3.50;;;;;;;17.38;33.59;102726.47;4829944;24;20086;-84
2023/05/18 09:09:09;;;;;;;7.05;3.65;;;;;;;16.77;33.79;102725.00;4822105;29;20516;-85
2023/05/18 09:11:34;;;;;;;5.05;2.90;;;;;;;16.68;34.60;102716.13;4819231;29;20037;-85
2023/05/18 09:14:00;;;;;;;7.90;3.33;;;;;;;17.09;33.76;102720.16;4839337;29;20038;-85
2023/05/18 09:16:25;;;;;;;10.20;3.40;;;;;;;16.80;34.33;102716.47;4831714;29;20415;-84
2023/05/18 09:18:51;;;;;;;5.45;3.03;;;;;;;17.12;33.48;102718.91;4831769;29;20212;-84
2023/05/18 09:21:16;;;;;;;8.75;3.15;;;;;;;18.31;31.80;102716.38;4832758;29;20062;-85
2023/05/18 09:23:45;;;;;;;8.40;3.47;;;;;;;18.15;31.26;102715.69;4838270;29;20034;-84
2023/05/18 09:26:12;;;;;;;7.20;3.10;;;;;;;18.49;30.86;102710.38;4838249;29;20080;-85
2023/05/18 09:28:42;;;;;;;10.05;3.20;;;;;;;18.04;31.41;102718.97;4810319;29;20053;-85
2023/05/18 09:31:11;;;;;;;9.85;3.50;;;;;;;18.51;31.20;102713.75;4825488;29;20444;-85
2023/05/18 09:33:47;;;;;;;8.15;3.30;;;;;;;18.70;30.87;102714.84;4833822;29;20030;-85
2023/05/18 09:36:15;;;;;;;9.05;3.05;;;;;;;19.66;29.88;102703.78;4813459;29;20066;-84
2023/05/18 09:38:45;;;;;;;8.55;3.30;;;;;;;19.56;29.91;102700.66;4826971;29;20045;-85
2023/05/18 09:41:19;;;;;;;9.70;3.38;;;;;;;18.56;30.30;102700.31;4834955;29;20117;-84
2023/05/18 09:43:47;;;;;;;8.07;3.40;;;;;;;18.40;31.19;102700.69;4834892;29;20031;-84
2023/05/18 09:46:12;;;;;;;4.97;3.17;;;;;;;18.34;30.27;102713.25;4832329;29;20030;-84
2023/05/18 09:48:50;;;;;;;10.10;3.60;;;;;;;17.69;32.39;102699.88;4836616;29;20080;-84
2023/05/18 09:51:23;;;;;;;8.40;3.35;;;;;;;17.76;31.80;102706.19;4813442;29;20089;-84
2023/05/18 09:54:11;;;;;;;7.57;3.60;;;;;;;17.75;31.54;102698.25;4812424;29;20578;-84
2023/05/18 09:56:40;;;;;;;8.77;3.47;;;;;;;19.21;30.45;102701.69;4824299;29;20038;-84
2023/05/18 09:59:19;;;;;;;7.45;3.50;;;;;;;19.35;30.00;102688.88;4836846;29;20550;-85
2023/05/18 10:01:54;;;;;;;8.48;3.35;;;;;;;20.33;28.94;102689.09;4826607;29;20040;-84
2023/05/18 10:04:45;;;;;;;7.40;3.10;;;;;;;21.44;27.05;102686.00;4817752;29;20467;-84
2023/05/18 10:10:04;;;;;;;6.47;3.03;;;;;;;21.75;26.13;102684.22;4831967;29;20057;-84
2023/05/18 10:12:43;;;;;;;7.60;3.20;;;;;;;20.25;27.99;102676.50;4826768;29;20083;-83
2023/05/18 10:18:31;;;;;;;6.75;3.20;;;;;;;20.67;27.96;102679.63;4826618;29;20421;-83
2023/05/18 10:20:58;;;;;;;7.07;3.00;;;;;;;20.83;28.41;102680.16;4834538;29;20041;-83
2023/05/18 10:23:25;;;;;;;10.38;3.72;;;;;;;21.69;25.97;102676.94;4833299;29;20113;-84
2023/05/18 10:25:52;;;;;;;6.90;3.10;;;;;;;22.56;25.19;102684.94;4804783;29;20046;-83
2023/05/18 10:28:31;;;;;;;7.32;3.25;;;;;;;22.53;25.05;102674.41;4833481;29;20034;-83
2023/05/18 10:30:57;;;;;;;8.15;3.58;;;;;;;22.88;24.61;102677.50;4820849;29;20037;-84
2023/05/18 10:33:26;;;;;;;7.93;3.08;;;;;;;22.76;24.93;102686.56;4834951;29;20086;-84
2023/05/18 10:35:54;;;;;;;7.47;3.60;;;;;;;22.27;25.19;102672.84;4836375;29;20034;-84
2023/05/18 10:38:24;;;;;;;8.98;3.30;;;;;;;21.01;26.62;102680.25;4837232;29;20513;-83
2023/05/18 10:40:51;;;;;;;7.53;3.10;;;;;;;22.38;25.61;102680.28;4830143;29;20038;-84
2023/05/18 10:43:28;;;;;;;9.32;3.45;;;;;;;22.24;25.25;102667.81;4845782;29;20395;-83
2023/05/18 10:46:12;;;;;;;7.72;3.50;;;;;;;22.39;25.42;102668.25;4804103;29;20057;-84
2023/05/18 10:48:44;;;;;;;10.18;3.65;;;;;;;22.65;24.89;102657.13;4814630;29;20026;-83
2023/05/18 10:51:13;;;;;;;9.10;3.55;;;;;;;21.60;26.04;102659.91;4810586;29;20142;-84
2023/05/18 10:53:42;;;;;;;7.55;3.83;;;;;;;20.55;27.25;102668.56;4809581;29;20034;-84
2023/05/18 10:56:11;;;;;;;5.90;3.38;;;;;;;21.16;26.69;102668.13;4807545;29;20083;-83
2023/05/18 10:58:48;;;;;;;7.78;3.70;;;;;;;19.33;28.77;102660.94;4807534;29;20030;-83
2023/05/18 11:01:32;;;;;;;7.95;3.50;;;;;;;19.82;28.74;102659.59;4789408;29;20030;-84
2023/05/18 11:04:07;;;;;;;8.88;3.53;;;;;;;20.23;28.31;102649.34;4808151;29;20034;-83
2023/05/18 11:06:53;;;;;;;7.15;3.42;;;;;;;22.23;25.75;102650.53;4818358;29;20538;-83
2023/05/18 11:09:33;;;;;;;8.43;3.58;;;;;;;22.95;25.35;102661.72;4819028;29;20129;-83
2023/05/18 11:11:59;;;;;;;7.35;3.47;;;;;;;23.29;24.49;102656.56;4814168;29;20042;-83
2023/05/18 11:15:12;;;;;;;7.05;3.50;;;;;;;23.33;24.55;102652.22;4816123;29;20050;-83
2023/05/18 11:17:37;;;;;;;8.35;3.70;;;;;;;22.65;24.75;102635.19;4804932;29;20503;-84
2023/05/18 11:20:06;;;;;;;6.47;3.25;;;;;;;21.85;26.36;102643.44;4818530;29;20072;-83
2023/05/18 11:22:47;;;;;;;7.25;3.75;;;;;;;20.01;27.64;102637.91;4802674;29;20472;-83
2023/05/18 11:25:25;;;;;;;6.97;3.40;;;;;;;20.67;27.48;102629.53;4808194;29;20122;-84
2023/05/18 11:27:55;;;;;;;8.40;3.55;;;;;;;20.80;28.16;102636.84;4810295;29;20035;-83
2023/05/18 11:30:45;;;;;;;6.40;3.28;;;;;;;22.48;25.64;102635.84;4807679;29;20043;-84
2023/05/18 11:33:25;;;;;;;6.22;3.22;;;;;;;23.56;24.17;102632.13;4811364;29;20518;-84
2023/05/18 11:35:59;;;;;;;10.48;3.60;;;;;;;23.38;24.77;102635.88;4818994;29;20034;-84
2023/05/18 11:38:57;;;;;;;6.60;3.70;;;;;;;22.90;24.73;102634.16;4819397;29;20471;-84
2023/05/18 11:41:41;;;;;;;6.25;3.67;;;;;;;23.12;24.11;102629.72;4815411;29;20038;-84
2023/05/18 11:44:23;;;;;;;7.38;3.60;;;;;;;23.44;24.38;102636.81;4816727;29;20030;-84
2023/05/18 11:47:08;;;;;;;9.13;3.83;;;;;;;22.91;23.96;102635.84;4803517;29;20027;-84
2023/05/18 11:49:52;;;;;;;7.60;3.75;;;;;;;23.19;24.27;102640.63;4812780;29;20580;-84
2023/05/18 11:52:46;;;;;;;6.35;3.60;;;;;;;22.76;24.36;102648.13;4823978;29;20091;-83
2023/05/18 11:55:20;;;;;;;10.63;3.80;;;;;;;22.19;24.70;102632.00;4802829;29;20035;-84
2023/05/18 11:58:17;;;;;;;7.70;3.90;;;;;;;22.09;26.17;102630.66;4815550;29;20119;-83
2023/05/18 12:00:47;;;;;;;6.88;3.90;;;;;;;19.91;27.00;102623.84;4814919;29;20094;-84